createdAt,value
2022-10-17T00:00:33.893Z,79.5
2022-10-17T00:01:36.273Z,79.5
2022-10-17T00:02:39.164Z,79.4
2022-10-17T00:03:41.874Z,79.5
2022-10-17T00:04:44.584Z,79.6
2022-10-17T00:05:47.439Z,79.5
2022-10-17T00:06:50.336Z,79.5
2022-10-17T00:07:52.295Z,79.4
2022-10-17T00:08:54.812Z,79.4
2022-10-17T00:09:57.762Z,79.4
2022-10-17T00:11:00.830Z,79.6
2022-10-17T00:12:03.364Z,79.6
2022-10-17T00:13:05.809Z,79.6
2022-10-17T00:14:09.184Z,79.6
2022-10-17T00:15:12.562Z,79.6
2022-10-17T00:16:16.700Z,79.6
2022-10-17T00:17:19.955Z,79.6
2022-10-17T00:18:23.051Z,79.6
2022-10-17T00:19:26.477Z,79.6
2022-10-17T00:20:28.972Z,79.6
2022-10-17T00:21:31.195Z,79.7
2022-10-17T00:22:34.037Z,79.7
2022-10-17T00:23:37.122Z,79.7
2022-10-17T00:24:39.634Z,79.8
2022-10-17T00:25:42.232Z,79.8
2022-10-17T00:26:45.878Z,79.8
2022-10-17T00:27:48.801Z,80
2022-10-17T00:28:52.218Z,79.9
2022-10-17T00:29:55.558Z,80
2022-10-17T00:30:58.107Z,79.9
2022-10-17T00:32:02.197Z,79.9
2022-10-17T00:33:05.062Z,79.9
2022-10-17T00:34:07.849Z,79.9
2022-10-17T00:35:11.276Z,80
2022-10-17T00:36:14.255Z,80
2022-10-17T00:37:17.417Z,79.9
2022-10-17T00:38:20.753Z,80
2022-10-17T00:39:23.543Z,80
2022-10-17T00:40:25.854Z,80
2022-10-17T00:41:28.726Z,79.9
2022-10-17T00:42:32.462Z,79.9
2022-10-17T00:43:35.448Z,79.8
2022-10-17T00:44:38.170Z,79.7
2022-10-17T00:45:40.597Z,79.7
2022-10-17T00:46:43.899Z,79.7
2022-10-17T00:47:47.458Z,79.7
2022-10-17T00:48:50.250Z,79.7
2022-10-17T00:49:53.611Z,79.8
2022-10-17T00:50:56.154Z,79.7
2022-10-17T00:51:58.935Z,79.7
2022-10-17T00:53:01.754Z,79.6
2022-10-17T00:54:04.566Z,79.5
2022-10-17T00:55:07.666Z,79.5
2022-10-17T00:56:11.086Z,79.5
2022-10-17T00:57:14.332Z,79.5
2022-10-17T00:58:16.922Z,79.3
2022-10-17T00:59:20.720Z,79.3
2022-10-17T01:00:23.818Z,79.1
2022-10-17T01:01:27.017Z,79.1
2022-10-17T01:02:31.213Z,79.1
2022-10-17T01:03:35.388Z,79
2022-10-17T01:04:37.625Z,79
2022-10-17T01:05:40.064Z,79
2022-10-17T01:06:43.408Z,79
2022-10-17T01:07:46.476Z,78.9
2022-10-17T01:08:48.992Z,78.9
2022-10-17T01:09:51.784Z,79
2022-10-17T01:10:55.116Z,79
2022-10-17T01:11:57.986Z,78.9
2022-10-17T01:13:00.581Z,78.8
2022-10-17T01:14:03.582Z,78.8
2022-10-17T01:15:06.459Z,78.8
2022-10-17T01:16:09.619Z,78.8
2022-10-17T01:17:13.080Z,78.8
2022-10-17T01:18:16.495Z,78.7
2022-10-17T01:19:20.762Z,78.6
2022-10-17T01:20:24.329Z,78.6
2022-10-17T01:21:26.756Z,78.6
2022-10-17T01:22:30.205Z,78.5
2022-10-17T01:23:33.628Z,78.5
2022-10-17T01:24:37.052Z,78.5
2022-10-17T01:25:40.198Z,78.5
2022-10-17T01:26:43.648Z,78.4
2022-10-17T01:27:46.998Z,78.4
2022-10-17T01:28:50.342Z,78.4
2022-10-17T01:29:53.122Z,78.4
2022-10-17T01:30:55.938Z,78.5
2022-10-17T01:31:59.297Z,78.4
2022-10-17T01:33:02.447Z,78.4
2022-10-17T01:34:05.277Z,78.4
2022-10-17T01:35:09.064Z,78.5
2022-10-17T01:36:12.882Z,78.5
2022-10-17T01:37:16.233Z,78.4
2022-10-17T01:38:18.466Z,78.4
2022-10-17T01:39:21.459Z,78.3
2022-10-17T01:40:24.325Z,78.3
2022-10-17T01:41:27.484Z,78.2
2022-10-17T01:42:32.093Z,78.1
2022-10-17T01:43:35.087Z,78.1
2022-10-17T01:44:38.817Z,78
2022-10-17T01:45:41.605Z,78
2022-10-17T01:46:44.695Z,78
2022-10-17T01:47:48.159Z,78
2022-10-17T01:48:51.816Z,78
2022-10-17T01:49:54.911Z,78.1
2022-10-17T01:50:58.668Z,78.1
2022-10-17T01:52:00.970Z,78.2
2022-10-17T01:53:04.317Z,78.4
2022-10-17T01:54:07.020Z,78.3
2022-10-17T01:55:10.148Z,78.4
2022-10-17T01:56:13.278Z,78.4
2022-10-17T01:57:16.508Z,78.4
2022-10-17T01:58:19.297Z,78.4
2022-10-17T01:59:22.444Z,78.4
2022-10-17T02:00:25.428Z,78.4
2022-10-17T02:01:28.777Z,78.4
2022-10-17T02:02:31.643Z,78.4
2022-10-17T02:03:34.713Z,78.4
2022-10-17T02:04:37.771Z,78.4
2022-10-17T02:05:40.314Z,78.3
2022-10-17T02:06:44.484Z,78.4
2022-10-17T02:07:47.279Z,78.3
2022-10-17T02:08:50.342Z,78.2
2022-10-17T02:09:53.509Z,78.3
2022-10-17T02:10:56.397Z,78.3
2022-10-17T02:11:59.576Z,78.4
2022-10-17T02:13:02.370Z,78.4
2022-10-17T02:14:06.024Z,78.5
2022-10-17T02:15:09.269Z,78.6
2022-10-17T02:16:12.072Z,78.6
2022-10-17T02:17:14.588Z,78.6
2022-10-17T02:18:17.653Z,78.6
2022-10-17T02:19:21.046Z,78.5
2022-10-17T02:20:24.027Z,78.4
2022-10-17T02:21:26.568Z,78.4
2022-10-17T02:22:30.665Z,78.4
2022-10-17T02:23:33.945Z,78.4
2022-10-17T02:24:37.084Z,78.4
2022-10-17T02:25:40.159Z,78.3
2022-10-17T02:26:43.114Z,78.2
2022-10-17T02:27:45.820Z,78.2
2022-10-17T02:28:48.934Z,78.2
2022-10-17T02:29:52.152Z,78.2
2022-10-17T02:30:54.860Z,78.1
2022-10-17T02:31:57.461Z,78
2022-10-17T02:33:00.522Z,78
2022-10-17T02:34:02.960Z,78
2022-10-17T02:35:06.056Z,78.1
2022-10-17T02:36:08.926Z,78
2022-10-17T02:37:11.751Z,78
2022-10-17T02:38:15.811Z,77.9
2022-10-17T02:39:19.024Z,77.9
2022-10-17T02:40:22.395Z,77.8
2022-10-17T02:41:25.205Z,77.7
2022-10-17T02:42:29.870Z,77.6
2022-10-17T02:43:33.396Z,77.5
2022-10-17T02:44:36.111Z,77.4
2022-10-17T02:45:38.256Z,77.3
2022-10-17T02:46:41.248Z,77.2
2022-10-17T02:47:44.311Z,77.2
2022-10-17T02:48:47.394Z,77.2
2022-10-17T02:49:50.210Z,77.1
2022-10-17T02:50:53.106Z,77.1
2022-10-17T02:51:56.257Z,77.2
2022-10-17T02:52:59.294Z,77.2
2022-10-17T02:54:03.082Z,77.2
2022-10-17T02:55:05.866Z,77.2
2022-10-17T02:56:08.093Z,77.1
2022-10-17T02:57:11.236Z,77.1
2022-10-17T02:58:14.304Z,77.1
2022-10-17T02:59:17.288Z,77
2022-10-17T03:00:20.699Z,76.9
2022-10-17T03:01:24.462Z,76.9
2022-10-17T03:02:28.667Z,76.9
2022-10-17T03:03:32.731Z,77
2022-10-17T03:04:35.445Z,77
2022-10-17T03:05:38.152Z,76.9
2022-10-17T03:06:40.958Z,76.9
2022-10-17T03:07:43.381Z,76.9
2022-10-17T03:08:45.926Z,76.8
2022-10-17T03:09:49.787Z,76.8
2022-10-17T03:10:52.654Z,76.8
2022-10-17T03:11:55.630Z,77
2022-10-17T03:12:58.612Z,77
2022-10-17T03:14:01.027Z,77
2022-10-17T03:15:04.426Z,77.1
2022-10-17T03:16:08.152Z,77
2022-10-17T03:17:10.753Z,76.9
2022-10-17T03:18:13.825Z,76.8
2022-10-17T03:19:17.279Z,77
2022-10-17T03:20:20.925Z,77.2
2022-10-17T03:21:23.776Z,77.1
2022-10-17T03:22:27.397Z,77.1
2022-10-17T03:23:30.792Z,76.9
2022-10-17T03:24:33.974Z,76.8
2022-10-17T03:25:38.094Z,76.7
2022-10-17T03:26:41.840Z,76.5
2022-10-17T03:27:45.100Z,76.5
2022-10-17T03:28:55.357Z,76.3
2022-10-17T03:29:58.138Z,76.2
2022-10-17T03:31:00.942Z,76.2
2022-10-17T03:32:04.077Z,76.3
2022-10-17T03:33:07.140Z,76.2
2022-10-17T03:34:09.644Z,76.2
2022-10-17T03:35:16.224Z,76.1
2022-10-17T03:36:19.572Z,76
2022-10-17T03:37:22.384Z,76
2022-10-17T03:38:25.816Z,75.9
2022-10-17T03:39:28.949Z,75.9
2022-10-17T03:40:32.327Z,75.9
2022-10-17T03:41:36.378Z,76
2022-10-17T03:42:39.757Z,76
2022-10-17T03:43:42.903Z,76
2022-10-17T03:44:46.419Z,76
2022-10-17T03:45:48.854Z,76
2022-10-17T03:46:51.553Z,76
2022-10-17T03:47:54.817Z,76
2022-10-17T03:48:58.185Z,76
2022-10-17T03:50:01.623Z,75.9
2022-10-17T03:51:04.083Z,76
2022-10-17T03:52:06.797Z,76
2022-10-17T03:53:10.133Z,75.9
2022-10-17T03:54:12.475Z,75.9
2022-10-17T03:55:15.267Z,75.8
2022-10-17T03:56:18.955Z,75.8
2022-10-17T03:57:22.810Z,75.8
2022-10-17T03:58:25.866Z,75.9
2022-10-17T03:59:28.853Z,75.9
2022-10-17T04:00:32.303Z,75.9
2022-10-17T04:01:35.792Z,75.6
2022-10-17T04:02:39.417Z,75.6
2022-10-17T04:03:43.123Z,75.4
2022-10-17T04:04:45.917Z,75.3
2022-10-17T04:05:48.832Z,75.3
2022-10-17T04:06:51.362Z,75.2
2022-10-17T04:07:54.424Z,75.1
2022-10-17T04:08:57.845Z,74.9
2022-10-17T04:10:01.202Z,74.9
2022-10-17T04:11:03.986Z,74.8
2022-10-17T04:12:07.523Z,74.7
2022-10-17T04:13:11.027Z,74.6
2022-10-17T04:14:13.717Z,74.5
2022-10-17T04:15:17.133Z,74.5
2022-10-17T04:16:20.297Z,74.5
2022-10-17T04:17:23.446Z,74.5
2022-10-17T04:18:26.798Z,74.5
2022-10-17T04:19:28.952Z,74.5
2022-10-17T04:20:32.687Z,74.5
2022-10-17T04:21:35.276Z,74.5
2022-10-17T04:22:38.457Z,74.4
2022-10-17T04:23:41.237Z,74.4
2022-10-17T04:24:43.803Z,74.3
2022-10-17T04:25:47.091Z,74.3
2022-10-17T04:26:49.682Z,74.2
2022-10-17T04:27:52.530Z,74.2
2022-10-17T04:28:56.398Z,74.2
2022-10-17T04:29:59.826Z,74.2
2022-10-17T04:31:02.633Z,74.2
2022-10-17T04:32:04.867Z,74.2
2022-10-17T04:33:07.379Z,74.3
2022-10-17T04:34:09.973Z,74.4
2022-10-17T04:35:13.133Z,74.4
2022-10-17T04:36:15.920Z,74.4
2022-10-17T04:37:18.903Z,74.5
2022-10-17T04:38:29.372Z,74.5
2022-10-17T04:39:33.130Z,74.6
2022-10-17T04:40:36.201Z,74.5
2022-10-17T04:41:38.935Z,74.5
2022-10-17T04:42:42.275Z,74.6
2022-10-17T04:43:52.497Z,74.7
2022-10-17T04:44:55.960Z,74.7
2022-10-17T04:45:58.819Z,74.6
2022-10-17T04:47:01.880Z,74.6
2022-10-17T04:48:04.952Z,74.7
2022-10-17T04:49:07.650Z,74.7
2022-10-17T04:50:10.982Z,74.7
2022-10-17T04:51:14.471Z,74.7
2022-10-17T04:52:17.199Z,74.8
2022-10-17T04:53:20.089Z,74.8
2022-10-17T04:54:23.153Z,74.8
2022-10-17T04:55:26.521Z,74.8
2022-10-17T04:56:29.672Z,74.9
2022-10-17T04:57:32.201Z,74.9
2022-10-17T04:58:35.734Z,75
2022-10-17T04:59:38.654Z,75
2022-10-17T05:00:42.513Z,75
2022-10-17T05:01:46.045Z,75
2022-10-17T05:02:49.506Z,75.1
2022-10-17T05:03:52.644Z,75.2
2022-10-17T05:04:55.991Z,75.2
2022-10-17T05:05:59.778Z,75.3
2022-10-17T05:07:02.875Z,75.4
2022-10-17T05:08:06.300Z,75.4
2022-10-17T05:09:09.729Z,75.4
2022-10-17T05:10:12.886Z,75.5
2022-10-17T05:11:15.203Z,75.6
2022-10-17T05:12:18.634Z,75.6
2022-10-17T05:13:21.783Z,75.6
2022-10-17T05:14:25.036Z,75.7
2022-10-17T05:15:28.423Z,75.7
2022-10-17T05:16:32.197Z,75.7
2022-10-17T05:17:36.199Z,75.8
2022-10-17T05:18:39.336Z,75.8
2022-10-17T05:19:42.122Z,75.8
2022-10-17T05:20:44.623Z,75.8
2022-10-17T05:21:48.080Z,75.8
2022-10-17T05:22:51.422Z,75.9
2022-10-17T05:23:55.115Z,75.9
2022-10-17T05:24:57.887Z,76.1
2022-10-17T05:26:01.432Z,76.1
2022-10-17T05:27:04.293Z,76.2
2022-10-17T05:28:07.157Z,76.3
2022-10-17T05:29:10.684Z,76.3
2022-10-17T05:30:14.144Z,76.4
2022-10-17T05:31:17.106Z,76.5
2022-10-17T05:32:21.194Z,76.6
2022-10-17T05:33:24.890Z,76.7
2022-10-17T05:34:28.061Z,76.8
2022-10-17T05:35:30.490Z,76.7
2022-10-17T05:36:33.553Z,76.7
2022-10-17T05:37:36.134Z,76.8
2022-10-17T05:38:39.481Z,76.8
2022-10-17T05:39:42.353Z,76.8
2022-10-17T05:40:45.498Z,76.8
2022-10-17T05:41:48.354Z,76.9
2022-10-17T05:42:51.046Z,76.9
2022-10-17T05:43:54.041Z,76.8
2022-10-17T05:44:56.999Z,76.9
2022-10-17T05:46:00.351Z,76.8
2022-10-17T05:47:04.112Z,76.9
2022-10-17T05:48:08.244Z,76.9
2022-10-17T05:49:51.362Z,76.9
2022-10-17T05:50:55.964Z,77
2022-10-17T05:51:59.066Z,77.1
2022-10-17T05:53:02.210Z,77.2
2022-10-17T05:54:05.548Z,77.4
2022-10-17T05:55:08.804Z,77.4
2022-10-17T05:56:11.709Z,77.4
2022-10-17T05:57:14.506Z,77.4
2022-10-17T05:58:54.212Z,77.3
2022-10-17T06:00:04.305Z,77.3
2022-10-17T06:01:13.460Z,77.2
2022-10-17T06:02:17.194Z,77.1
2022-10-17T06:03:21.640Z,77.3
2022-10-17T06:04:24.730Z,77.4
2022-10-17T06:05:27.246Z,77.4
2022-10-17T06:06:29.959Z,77.5
2022-10-17T06:07:32.841Z,77.4
2022-10-17T06:08:36.188Z,77.4
2022-10-17T06:09:39.800Z,77.3
2022-10-17T06:10:42.774Z,77.3
2022-10-17T06:11:45.859Z,77.4
2022-10-17T06:12:49.198Z,77.5
2022-10-17T06:13:52.270Z,77.5
2022-10-17T06:14:55.490Z,77.5
2022-10-17T06:15:58.934Z,77.7
2022-10-17T06:17:01.904Z,77.6
2022-10-17T06:18:04.751Z,77.7
2022-10-17T06:19:08.803Z,77.7
2022-10-17T06:20:11.892Z,77.6
2022-10-17T06:21:14.682Z,77.5
2022-10-17T06:22:18.004Z,77.6
2022-10-17T06:23:20.892Z,77.6
2022-10-17T06:24:23.964Z,77.6
2022-10-17T06:25:26.856Z,77.7
2022-10-17T06:26:30.570Z,77.8
2022-10-17T06:27:33.822Z,77.8
2022-10-17T06:28:37.944Z,77.8
2022-10-17T06:29:41.555Z,77.9
2022-10-17T06:30:44.343Z,77.9
2022-10-17T06:31:47.424Z,77.9
2022-10-17T06:32:50.371Z,78
2022-10-17T06:33:54.135Z,78.1
2022-10-17T06:34:58.305Z,78.2
2022-10-17T06:36:01.756Z,78.4
2022-10-17T06:37:04.828Z,78.4
2022-10-17T06:38:07.703Z,78.3
2022-10-17T06:39:11.712Z,78.3
2022-10-17T06:40:14.701Z,78.4
2022-10-17T06:41:17.208Z,78.6
2022-10-17T06:42:20.626Z,78.5
2022-10-17T06:43:29.012Z,78.5
2022-10-17T06:44:31.914Z,78.5
2022-10-17T06:45:34.730Z,78.6
2022-10-17T06:46:37.520Z,78.7
2022-10-17T06:47:40.178Z,78.6
2022-10-17T06:48:43.493Z,78.4
2022-10-17T06:49:47.259Z,78.4
2022-10-17T06:50:51.337Z,78.4
2022-10-17T06:51:54.407Z,78.4
2022-10-17T06:52:57.741Z,78.5
2022-10-17T06:54:00.525Z,78.5
2022-10-17T06:56:06.946Z,78.5
2022-10-17T06:57:10.444Z,78.5
2022-10-17T06:58:13.894Z,78.6
2022-10-17T06:59:16.437Z,78.7
2022-10-17T07:00:18.755Z,78.6
2022-10-17T07:01:21.610Z,78.7
2022-10-17T07:02:24.484Z,78.8
2022-10-17T07:03:28.157Z,78.8
2022-10-17T07:04:31.274Z,78.8
2022-10-17T07:05:34.382Z,78.8
2022-10-17T07:06:38.478Z,78.9
2022-10-17T07:07:51.007Z,78.9
2022-10-17T07:08:55.054Z,79.1
2022-10-17T07:09:57.911Z,79
2022-10-17T07:11:00.352Z,79.1
2022-10-17T07:12:03.615Z,79.2
2022-10-17T07:13:06.960Z,79.1
2022-10-17T07:14:10.589Z,79.1
2022-10-17T07:15:13.662Z,79.2
2022-10-17T07:16:17.108Z,79.2
2022-10-17T07:17:19.435Z,79.3
2022-10-17T07:18:22.503Z,79.4
2022-10-17T07:19:25.792Z,79.5
2022-10-17T07:20:28.645Z,79.5
2022-10-17T07:21:39.984Z,79.5
2022-10-17T07:22:44.050Z,79.4
2022-10-17T07:23:46.351Z,79.4
2022-10-17T07:25:53.708Z,79.5
2022-10-17T07:26:56.841Z,79.5
2022-10-17T07:27:59.822Z,79.4
2022-10-17T07:29:03.186Z,79.4
2022-10-17T07:30:05.804Z,79.4
2022-10-17T07:31:08.841Z,79.4
2022-10-17T07:32:11.358Z,79.3
2022-10-17T07:33:14.075Z,79.6
2022-10-17T07:34:17.069Z,79.5
2022-10-17T07:35:20.803Z,79.6
2022-10-17T07:36:23.665Z,79.6
2022-10-17T07:37:26.810Z,79.5
2022-10-17T07:38:32.040Z,79.4
2022-10-17T07:39:35.109Z,79.5
2022-10-17T07:40:38.213Z,79.6
2022-10-17T07:41:41.568Z,79.6
2022-10-17T07:42:45.010Z,79.5
2022-10-17T07:43:48.188Z,79.7
2022-10-17T07:44:51.277Z,79.7
2022-10-17T07:45:54.709Z,79.9
2022-10-17T07:46:57.161Z,79.7
2022-10-17T07:48:00.647Z,79.8
2022-10-17T07:49:03.076Z,79.8
2022-10-17T07:50:05.857Z,79.7
2022-10-17T07:51:09.326Z,79.5
2022-10-17T07:52:12.312Z,79.5
2022-10-17T07:53:15.431Z,79.4
2022-10-17T07:54:19.251Z,79.3
2022-10-17T07:55:22.358Z,79.2
2022-10-17T07:56:25.350Z,79
2022-10-17T07:57:28.332Z,79
2022-10-17T07:58:32.069Z,78.9
2022-10-17T07:59:35.481Z,78.8
2022-10-17T08:00:38.993Z,78.8
2022-10-17T08:01:42.166Z,78.6
2022-10-17T08:02:45.025Z,78.6
2022-10-17T08:03:48.101Z,78.5
2022-10-17T08:04:51.252Z,78.5
2022-10-17T08:05:54.042Z,78.4
2022-10-17T08:07:26.957Z,78.4
2022-10-17T08:08:33.172Z,78.5
2022-10-17T08:09:37.235Z,78.4
2022-10-17T08:10:40.885Z,78.3
2022-10-17T08:11:43.672Z,78.1
2022-10-17T08:12:47.166Z,78
2022-10-17T08:13:50.150Z,77.8
2022-10-17T08:14:53.212Z,77.6
2022-10-17T08:15:56.301Z,77.4
2022-10-17T08:16:59.718Z,77.4
2022-10-17T08:18:02.227Z,77.5
2022-10-17T08:19:05.835Z,77.3
2022-10-17T08:20:09.279Z,77.1
2022-10-17T08:21:12.345Z,76.9
2022-10-17T08:22:15.549Z,76.6
2022-10-17T08:23:18.069Z,76.4
2022-10-17T08:24:21.398Z,76.3
2022-10-17T08:25:25.460Z,76
2022-10-17T08:26:28.806Z,75.8
2022-10-17T08:27:31.943Z,75.7
2022-10-17T08:28:35.148Z,75.4
2022-10-17T08:29:38.528Z,75.2
2022-10-17T08:30:41.944Z,75.4
2022-10-17T08:31:58.702Z,74.8
2022-10-17T08:33:12.104Z,73.9
2022-10-17T08:34:15.748Z,73.8
2022-10-17T08:35:19.155Z,73.8
2022-10-17T08:36:21.848Z,73.7
2022-10-17T08:37:25.314Z,73.9
2022-10-17T08:38:36.030Z,73.9
2022-10-17T08:39:46.315Z,73.3
2022-10-17T08:40:50.419Z,73.3
2022-10-17T08:41:53.845Z,72.9
2022-10-17T08:42:57.494Z,72.8
2022-10-17T08:44:00.858Z,72.5
2022-10-17T08:45:04.284Z,72.4
2022-10-17T08:46:08.220Z,72.4
2022-10-17T08:47:10.876Z,72.3
2022-10-17T08:48:14.522Z,72.1
2022-10-17T08:49:17.231Z,72.4
2022-10-17T08:50:20.128Z,72.7
2022-10-17T08:51:23.316Z,72.7
2022-10-17T08:52:26.469Z,72.8
2022-10-17T08:53:30.231Z,72.6
2022-10-17T08:54:33.793Z,71.7
2022-10-17T08:55:46.202Z,71.6
2022-10-17T08:56:51.114Z,71.1
2022-10-17T08:57:54.370Z,71
2022-10-17T08:58:56.907Z,70.6
2022-10-17T09:00:00.060Z,70.6
2022-10-17T09:01:03.159Z,69.7
2022-10-17T09:02:09.381Z,69.9
2022-10-17T09:03:13.472Z,69.5
2022-10-17T09:04:17.112Z,69.4
2022-10-17T09:05:27.512Z,68.6
2022-10-17T09:06:30.688Z,68.3
2022-10-17T09:07:34.190Z,68.5
2022-10-17T09:08:36.925Z,68.4
2022-10-17T09:09:40.271Z,68.7
2022-10-17T09:10:43.412Z,69
2022-10-17T09:11:47.103Z,69.1
2022-10-17T09:12:50.923Z,69.4
2022-10-17T09:13:53.994Z,69.8
2022-10-17T09:14:57.443Z,69.8
2022-10-17T09:16:00.892Z,70
2022-10-17T09:17:04.620Z,70
2022-10-17T09:18:07.503Z,70.2
2022-10-17T09:19:10.294Z,70.2
2022-10-17T09:20:13.930Z,69.9
2022-10-17T09:21:17.011Z,69.7
2022-10-17T09:22:20.199Z,69.7
2022-10-17T09:23:24.212Z,69.4
2022-10-17T09:24:27.798Z,68.9
2022-10-17T09:25:30.680Z,69.2
2022-10-17T09:26:34.325Z,69.3
2022-10-17T09:27:37.821Z,69
2022-10-17T09:28:42.216Z,69.1
2022-10-17T09:29:45.613Z,69.1
2022-10-17T09:30:49.020Z,69.2
2022-10-17T09:31:52.399Z,68.7
2022-10-17T09:32:55.975Z,68.7
2022-10-17T09:33:59.406Z,68.7
2022-10-17T09:35:02.670Z,68.6
2022-10-17T09:36:06.117Z,68.6
2022-10-17T09:37:08.910Z,68.7
2022-10-17T09:38:12.277Z,68.6
2022-10-17T09:39:15.636Z,68.7
2022-10-17T09:40:18.179Z,68.5
2022-10-17T09:41:47.969Z,68.5
2022-10-17T09:42:50.783Z,67.9
2022-10-17T09:43:54.557Z,67.7
2022-10-17T09:44:57.996Z,67.3
2022-10-17T09:46:01.857Z,66.6
2022-10-17T09:47:05.123Z,66
2022-10-17T09:48:07.640Z,66
2022-10-17T09:49:17.997Z,65.6
2022-10-17T09:50:21.290Z,65.3
2022-10-17T09:51:27.666Z,65.4
2022-10-17T09:52:32.222Z,64.6
2022-10-17T09:53:35.530Z,65.1
2022-10-17T09:54:38.319Z,65.1
2022-10-17T09:55:42.008Z,65.2
2022-10-17T09:56:45.463Z,65.3
2022-10-17T09:57:48.619Z,64.6
2022-10-17T09:58:52.384Z,64.6
2022-10-17T09:59:55.960Z,64.4
2022-10-17T10:00:59.404Z,64.6
2022-10-17T10:02:01.957Z,64.8
2022-10-17T10:03:04.780Z,65.1
2022-10-17T10:04:07.209Z,65
2022-10-17T10:05:10.662Z,65.2
2022-10-17T10:06:13.722Z,65.5
2022-10-17T10:07:16.669Z,64.9
2022-10-17T10:08:19.766Z,64.4
2022-10-17T10:09:23.589Z,63.8
2022-10-17T10:10:29.153Z,63.8
2022-10-17T10:11:32.662Z,63.9
2022-10-17T10:12:35.851Z,64.1
2022-10-17T10:13:38.000Z,64.5
2022-10-17T10:14:44.215Z,64.4
2022-10-17T10:15:50.806Z,64.9
2022-10-17T10:16:53.611Z,65.2
2022-10-17T10:17:56.770Z,65.4
2022-10-17T10:19:00.207Z,65.5
2022-10-17T10:20:04.936Z,65.7
2022-10-17T10:21:08.378Z,65.6
2022-10-17T10:22:11.539Z,65.8
2022-10-17T10:23:14.247Z,64.5
2022-10-17T10:24:17.862Z,64.3
2022-10-17T10:25:21.375Z,64.4
2022-10-17T10:26:24.804Z,63.6
2022-10-17T10:27:28.128Z,63.4
2022-10-17T10:28:31.270Z,63.1
2022-10-17T10:29:34.830Z,62.6
2022-10-17T10:30:41.413Z,62.2
2022-10-17T10:31:45.221Z,61.8
2022-10-17T10:32:48.554Z,61.1
2022-10-17T10:33:58.507Z,61.1
2022-10-17T10:35:02.205Z,60.6
2022-10-17T10:36:05.099Z,60.9
2022-10-17T10:37:09.805Z,61
2022-10-17T10:38:19.673Z,61.5
2022-10-17T10:39:23.068Z,62
2022-10-17T10:40:25.885Z,62.6
2022-10-17T10:41:29.117Z,62.7
2022-10-17T10:42:31.850Z,61.6
2022-10-17T10:43:35.315Z,61.1
2022-10-17T10:44:39.132Z,61.5
2022-10-17T10:45:50.798Z,61.5
2022-10-17T10:46:54.917Z,61.4
2022-10-17T10:47:57.997Z,61.6
2022-10-17T10:49:00.629Z,61.8
2022-10-17T10:50:03.833Z,61.9
2022-10-17T10:51:07.063Z,62.1
2022-10-17T10:52:10.228Z,62.2
2022-10-17T10:53:13.675Z,62.1
2022-10-17T10:54:15.792Z,62.2
2022-10-17T10:55:19.514Z,62.5
2022-10-17T10:56:22.654Z,62.6
2022-10-17T10:57:25.811Z,62.5
2022-10-17T10:58:30.343Z,62.7
2022-10-17T10:59:34.073Z,62.6
2022-10-17T11:00:38.040Z,62.8
2022-10-17T11:01:42.075Z,62.5
2022-10-17T11:02:45.644Z,62.8
2022-10-17T11:03:49.364Z,62.1
2022-10-17T11:04:53.092Z,62
2022-10-17T11:05:56.266Z,61.7
2022-10-17T11:07:00.272Z,61.5
2022-10-17T11:08:03.995Z,61.4
2022-10-17T11:09:06.779Z,61.5
2022-10-17T11:10:10.026Z,61.9
2022-10-17T11:11:13.436Z,62.3
2022-10-17T11:12:17.157Z,62.1
2022-10-17T11:13:19.668Z,62.4
2022-10-17T11:14:22.756Z,62.1
2022-10-17T11:15:25.746Z,61.9
2022-10-17T11:16:29.329Z,62
2022-10-17T11:17:33.868Z,62.4
2022-10-17T11:18:38.033Z,62.6
2022-10-17T11:19:41.655Z,63
2022-10-17T11:20:43.895Z,62.9
2022-10-17T11:21:46.427Z,62.9
2022-10-17T11:22:49.312Z,62.5
2022-10-17T11:23:52.305Z,62.7
2022-10-17T11:24:55.751Z,62.8
2022-10-17T11:25:58.540Z,62.7
2022-10-17T11:27:01.342Z,62.8
2022-10-17T11:28:06.703Z,63
2022-10-17T11:29:10.532Z,62.1
2022-10-17T11:30:13.462Z,62.4
2022-10-17T11:31:16.572Z,62.3
2022-10-17T11:32:19.291Z,61.7
2022-10-17T11:33:23.169Z,62
2022-10-17T11:34:27.295Z,62.9
2022-10-17T11:35:31.287Z,62
2022-10-17T11:36:34.430Z,61.3
2022-10-17T11:37:38.353Z,61.6
2022-10-17T11:38:43.278Z,61.2
2022-10-17T11:40:49.322Z,61.9
2022-10-17T11:41:57.542Z,61.9
2022-10-17T11:43:06.997Z,62.4
2022-10-17T11:44:10.354Z,62.2
2022-10-17T11:45:13.804Z,63.3
2022-10-17T11:46:17.294Z,63.2
2022-10-17T11:47:20.404Z,63
2022-10-17T11:48:23.201Z,63.2
2022-10-17T11:52:02.201Z,63.8
2022-10-17T11:53:06.772Z,63.8
2022-10-17T11:54:09.766Z,64
2022-10-17T11:55:12.916Z,63.6
2022-10-17T11:56:16.304Z,63.6
2022-10-17T11:57:19.738Z,63.7
2022-10-17T11:58:22.753Z,64.2
2022-10-17T11:59:26.246Z,64.2
2022-10-17T12:00:29.978Z,64.4
2022-10-17T12:01:32.807Z,64.3
2022-10-17T12:02:35.677Z,64.5
2022-10-17T12:03:38.958Z,64.6
2022-10-17T12:04:50.543Z,64.7
2022-10-17T12:05:54.569Z,64.9
2022-10-17T12:06:57.439Z,64.8
2022-10-17T12:08:00.966Z,65
2022-10-17T12:09:03.830Z,65.1
2022-10-17T12:10:07.172Z,65.3
2022-10-17T12:11:09.949Z,65.1
2022-10-17T12:12:13.209Z,65.2
2022-10-17T12:13:15.878Z,65.3
2022-10-17T12:14:18.969Z,65.2
2022-10-17T12:15:21.943Z,65.3
2022-10-17T12:16:25.144Z,65.5
2022-10-17T12:17:30.129Z,65.3
2022-10-17T12:18:34.078Z,64.9
2022-10-17T12:19:37.241Z,65
2022-10-17T12:20:40.070Z,64.8
2022-10-17T12:21:44.973Z,64.8
2022-10-17T12:22:47.941Z,64.9
2022-10-17T12:23:50.735Z,65
2022-10-17T12:24:53.820Z,64.6
2022-10-17T12:26:06.013Z,64.8
2022-10-17T12:27:09.001Z,64.4
2022-10-17T12:28:12.448Z,64.6
2022-10-17T12:29:15.955Z,64.8
2022-10-17T12:30:19.040Z,64.9
2022-10-17T12:31:22.110Z,64.8
2022-10-17T12:32:27.835Z,65
2022-10-17T12:34:10.293Z,64.7
2022-10-17T12:35:13.358Z,65.2
2022-10-17T12:36:16.845Z,65.2
2022-10-17T12:37:20.709Z,65.4
2022-10-17T12:38:23.577Z,65.9
2022-10-17T12:39:27.098Z,65.7
2022-10-17T12:40:30.755Z,66
2022-10-17T12:41:34.054Z,66.3
2022-10-17T12:42:36.589Z,66.1
2022-10-17T12:43:46.014Z,66.1
2022-10-17T12:44:52.698Z,66.4
2022-10-17T12:45:55.716Z,66.3
2022-10-17T12:46:59.163Z,66.4
2022-10-17T12:48:02.534Z,66.4
2022-10-17T12:49:05.728Z,66.5
2022-10-17T12:50:09.459Z,66.6
2022-10-17T12:51:38.630Z,66.6
2022-10-17T12:52:43.013Z,67
2022-10-17T12:53:45.986Z,67
2022-10-17T12:55:15.145Z,67.2
2022-10-17T12:56:17.889Z,67.3
2022-10-17T12:57:20.951Z,67.4
2022-10-17T12:58:23.832Z,67.5
2022-10-17T12:59:26.918Z,67.7
2022-10-17T13:00:29.738Z,67.9
2022-10-17T13:01:33.492Z,67.9
2022-10-17T13:02:36.678Z,68.1
2022-10-17T13:03:40.159Z,68.2
2022-10-17T13:04:43.424Z,68.3
2022-10-17T13:05:46.657Z,68.3
2022-10-17T13:06:50.547Z,68.4
2022-10-17T13:07:54.750Z,68.3
2022-10-17T13:09:06.227Z,68.5
2022-10-17T13:10:15.513Z,69
2022-10-17T13:11:18.482Z,68.8
2022-10-17T13:12:21.825Z,68.9
2022-10-17T13:13:24.292Z,69
2022-10-17T13:14:27.738Z,69.2
2022-10-17T13:15:30.781Z,69.6
2022-10-17T13:16:34.214Z,69.3
2022-10-17T13:17:44.463Z,69.4
2022-10-17T13:18:47.986Z,69.3
2022-10-17T13:19:51.073Z,69.6
2022-10-17T13:20:54.153Z,69.6
2022-10-17T13:22:07.315Z,69.8
2022-10-17T13:23:11.177Z,69.6
2022-10-17T13:24:13.983Z,69.9
2022-10-17T13:25:17.403Z,69.9
2022-10-17T13:26:20.322Z,69.9
2022-10-17T13:27:24.153Z,70
2022-10-17T13:28:27.907Z,70.1
2022-10-17T13:29:31.325Z,70.3
2022-10-17T13:30:35.328Z,70.1
2022-10-17T13:31:38.029Z,70
2022-10-17T13:32:42.000Z,70.1
2022-10-17T13:33:45.097Z,70.5
2022-10-17T13:34:48.081Z,70.5
2022-10-17T13:36:06.269Z,70.6
2022-10-17T13:37:09.330Z,70.2
2022-10-17T13:38:13.598Z,71
2022-10-17T13:39:56.693Z,70.8
2022-10-17T13:41:52.839Z,70.9
2022-10-17T13:42:55.924Z,70.9
2022-10-17T13:43:58.729Z,70.8
2022-10-17T13:45:02.101Z,70.9
2022-10-17T13:46:39.952Z,71.1
2022-10-17T13:47:44.135Z,71.3
2022-10-17T13:48:48.375Z,71.2
2022-10-17T13:49:56.316Z,71.2
2022-10-17T13:51:11.559Z,71.5
2022-10-17T13:52:15.612Z,71.2
2022-10-17T13:53:19.653Z,71.6
2022-10-17T13:54:23.104Z,72.1
2022-10-17T13:55:26.363Z,71.4
2022-10-17T13:56:31.675Z,71.5
2022-10-17T13:57:35.908Z,71.6
2022-10-17T13:58:39.325Z,72.1
2022-10-17T13:59:42.418Z,71.9
2022-10-17T14:00:45.353Z,71.5
2022-10-17T14:01:49.570Z,71.3
2022-10-17T14:02:52.391Z,71.5
2022-10-17T14:04:20.896Z,71.5
2022-10-17T14:05:23.930Z,72.3
2022-10-17T14:06:28.376Z,72.5
2022-10-17T14:08:20.418Z,72.3
2022-10-17T14:09:28.541Z,72.1
2022-10-17T14:10:31.728Z,72.2
2022-10-17T14:11:34.798Z,72
2022-10-17T14:12:37.798Z,72.5
2022-10-17T14:13:39.970Z,72.6
2022-10-17T14:15:13.643Z,72.3
2022-10-17T14:16:16.566Z,72.2
2022-10-17T14:17:19.083Z,72.4
2022-10-17T14:18:22.369Z,71.8
2022-10-17T14:19:25.678Z,72
2022-10-17T14:21:44.919Z,72.2
2022-10-17T14:23:23.806Z,72.4
2022-10-17T14:24:27.637Z,73.4
2022-10-17T14:25:31.497Z,72.9
2022-10-17T14:26:34.652Z,72.8
2022-10-17T14:27:38.098Z,72.8